Time;durP1;ratioP1;P1;durP2;ratioP2;P2;SDS_P1;SDS_P2;PMS_P1;PMS_P2;Temp;Humidity;BMP_temperature;BMP_pressure;BME280_temperature;BME280_humidity;BME280_pressure;Samples;Min_cycle;Max_cycle;Signal;HPM_P1;HPM_P2
2022/09/27 04:00:42;;;;;;;3.87;2.27;;;9.80;99.90;;;;;;5815970;23;20926;-73
2022/09/27 04:03:09;;;;;;;5.73;3.00;;;9.80;99.90;;;;;;4909799;29;20467;-74
2022/09/27 04:05:36;;;;;;;3.40;2.80;;;9.80;99.90;;;;;;4908820;29;20478;-74
2022/09/27 04:08:05;;;;;;;6.40;3.40;;;9.80;99.90;;;;;;4909612;29;20465;-74
2022/09/27 04:10:32;;;;;;;9.80;3.93;;;9.80;99.90;;;;;;4909638;29;20578;-73
2022/09/27 04:12:59;;;;;;;9.43;5.20;;;9.80;99.90;;;;;;4909317;29;20459;-74
2022/09/27 04:15:26;;;;;;;11.53;4.63;;;9.80;99.90;;;;;;4909108;29;20463;-73
2022/09/27 04:17:54;;;;;;;5.90;3.33;;;9.80;99.90;;;;;;4909236;29;20558;-73
2022/09/27 04:20:21;;;;;;;8.50;3.30;;;9.80;99.90;;;;;;4908348;29;20546;-74
2022/09/27 04:22:48;;;;;;;8.30;3.27;;;9.80;99.90;;;;;;4910123;29;20587;-73
2022/09/27 04:25:15;;;;;;;5.27;3.30;;;9.80;99.90;;;;;;4908967;29;20462;-73
2022/09/27 04:27:45;;;;;;;6.50;4.07;;;9.80;99.90;;;;;;4909692;29;21456;-73
2022/09/27 04:30:13;;;;;;;8.40;3.90;;;9.80;99.90;;;;;;4908894;29;20447;-74
2022/09/27 04:32:41;;;;;;;8.67;3.80;;;9.80;99.90;;;;;;4909649;29;20459;-73
2022/09/27 04:37:55;;;;;;;7.30;4.07;;;9.80;99.90;;;;;;4909600;29;20631;-73
2022/09/27 04:40:22;;;;;;;8.13;3.20;;;9.80;99.90;;;;;;4909579;29;20465;-73
2022/09/27 04:42:49;;;;;;;11.17;3.77;;;9.90;99.90;;;;;;4909174;29;20501;-73
2022/09/27 04:45:17;;;;;;;6.67;3.50;;;9.80;99.90;;;;;;4909000;29;20463;-73
2022/09/27 04:47:44;;;;;;;12.13;3.90;;;9.80;99.90;;;;;;4909621;29;20491;-76
2022/09/27 04:50:13;;;;;;;5.80;3.50;;;9.80;99.90;;;;;;4909240;29;20455;-76
2022/09/27 04:52:40;;;;;;;5.80;3.33;;;9.80;99.90;;;;;;4909352;29;20459;-76
2022/09/27 04:55:09;;;;;;;7.07;3.80;;;9.90;99.90;;;;;;4908842;29;20513;-76
2022/09/27 04:57:36;;;;;;;8.77;3.73;;;9.90;99.90;;;;;;4909343;29;20498;-76
2022/09/27 05:00:04;;;;;;;7.33;3.73;;;9.90;99.90;;;;;;4909777;29;20467;-75
2022/09/27 05:02:31;;;;;;;8.50;3.33;;;9.90;99.90;;;;;;4909120;29;20509;-76
2022/09/27 05:04:58;;;;;;;5.10;3.60;;;9.90;99.90;;;;;;4908206;29;20463;-76
2022/09/27 05:07:27;;;;;;;10.87;3.70;;;9.90;99.90;;;;;;4909246;29;20471;-76
2022/09/27 05:09:55;;;;;;;9.80;3.30;;;9.90;99.90;;;;;;4909391;29;20464;-76
2022/09/27 05:12:25;;;;;;;14.80;4.40;;;9.90;99.90;;;;;;4909531;29;20481;-75
2022/09/27 05:14:52;;;;;;;8.60;4.33;;;9.90;99.90;;;;;;4909006;29;20452;-76
2022/09/27 05:17:21;;;;;;;8.63;3.23;;;9.90;99.90;;;;;;4908960;29;20956;-76
2022/09/27 05:19:48;;;;;;;6.40;3.50;;;9.90;99.90;;;;;;4908881;29;20936;-76
2022/09/27 05:22:14;;;;;;;6.23;3.50;;;9.90;99.90;;;;;;4909017;29;20502;-76
2022/09/27 05:24:43;;;;;;;11.13;4.20;;;9.80;99.90;;;;;;4908751;29;20460;-76
2022/09/27 05:27:15;;;;;;;7.93;3.60;;;9.80;99.90;;;;;;4909161;29;20464;-76
2022/09/27 05:29:42;;;;;;;7.03;3.40;;;9.80;99.90;;;;;;4908440;29;20546;-76
2022/09/27 05:32:09;;;;;;;3.77;2.70;;;9.80;99.90;;;;;;4911512;29;20475;-75
2022/09/27 05:34:36;;;;;;;5.27;3.00;;;9.80;99.90;;;;;;4912158;29;20576;-76
2022/09/27 05:37:03;;;;;;;7.53;3.70;;;9.80;99.90;;;;;;4912725;29;20459;-76
2022/09/27 05:39:29;;;;;;;6.80;3.37;;;9.80;99.90;;;;;;4912964;29;20459;-75
2022/09/27 05:41:58;;;;;;;6.87;3.53;;;9.80;99.90;;;;;;4912520;29;20508;-76
2022/09/27 05:44:25;;;;;;;4.87;2.80;;;9.80;99.90;;;;;;4911329;29;20455;-76
2022/09/27 05:46:52;;;;;;;9.37;3.60;;;9.80;99.90;;;;;;4910613;29;20460;-76
2022/09/27 05:49:19;;;;;;;4.67;2.87;;;9.80;99.90;;;;;;4911814;29;20550;-76
2022/09/27 05:51:46;;;;;;;6.67;3.00;;;9.80;99.90;;;;;;4912227;29;20483;-76
2022/09/27 05:54:13;;;;;;;5.27;2.63;;;9.80;99.90;;;;;;4911577;29;20550;-76
2022/09/27 05:56:40;;;;;;;5.33;2.53;;;9.80;99.90;;;;;;4912702;29;20467;-77
2022/09/27 05:59:08;;;;;;;7.50;3.00;;;9.80;99.90;;;;;;4912324;29;20557;-76
2022/09/27 06:01:35;;;;;;;4.27;2.20;;;9.80;99.90;;;;;;4911903;29;20507;-76
2022/09/27 06:04:03;;;;;;;4.30;2.20;;;9.80;99.90;;;;;;4911851;29;20490;-77
2022/09/27 06:06:30;;;;;;;3.30;2.07;;;9.70;99.90;;;;;;4912531;29;20553;-77
2022/09/27 06:08:58;;;;;;;3.53;2.50;;;9.70;99.90;;;;;;4912354;29;20482;-77
2022/09/27 06:11:26;;;;;;;7.50;2.33;;;9.70;99.90;;;;;;4912093;29;20578;-76
2022/09/27 06:13:53;;;;;;;3.10;1.90;;;9.70;99.90;;;;;;4911893;29;20979;-76
2022/09/27 06:16:21;;;;;;;6.10;2.40;;;9.70;99.90;;;;;;4911537;29;20550;-77
2022/09/27 06:18:48;;;;;;;2.30;1.87;;;9.70;99.90;;;;;;4911898;29;20463;-76
2022/09/27 06:21:15;;;;;;;5.60;2.30;;;9.70;99.90;;;;;;4912181;29;20479;-77
2022/09/27 06:23:42;;;;;;;6.67;2.20;;;9.70;99.90;;;;;;4911652;29;20618;-77
2022/09/27 06:26:10;;;;;;;4.23;2.30;;;9.70;99.90;;;;;;4911154;29;20557;-77
2022/09/27 06:28:37;;;;;;;5.87;2.30;;;9.70;99.90;;;;;;4911925;29;20550;-76
2022/09/27 06:31:06;;;;;;;5.50;2.17;;;9.70;99.90;;;;;;4911999;29;20482;-76
2022/09/27 06:33:35;;;;;;;2.30;2.10;;;9.70;99.90;;;;;;4911947;29;20847;-77
2022/09/27 06:36:03;;;;;;;4.53;2.30;;;9.70;99.90;;;;;;4911111;29;21041;-76
2022/09/27 06:38:32;;;;;;;3.23;2.23;;;9.70;99.90;;;;;;4911516;29;20469;-76
2022/09/27 06:41:01;;;;;;;6.30;2.40;;;9.70;99.90;;;;;;4911435;29;20483;-77
2022/09/27 06:43:29;;;;;;;3.97;2.30;;;9.70;99.90;;;;;;4910732;29;20487;-77
2022/09/27 06:45:56;;;;;;;3.20;2.20;;;9.70;99.90;;;;;;4910614;29;20968;-77
2022/09/27 06:48:23;;;;;;;5.80;2.87;;;9.70;99.90;;;;;;4911531;29;20471;-76
2022/09/27 06:50:54;;;;;;;3.20;2.67;;;9.70;99.90;;;;;;4911446;29;20577;-77
2022/09/27 06:53:22;;;;;;;5.13;2.67;;;9.80;99.90;;;;;;4911238;29;20459;-77
2022/09/27 06:55:50;;;;;;;5.73;2.77;;;9.70;99.90;;;;;;4910872;29;20885;-76
2022/09/27 07:01:01;;;;;;;5.03;2.70;;;9.80;99.90;;;;;;4911090;29;20525;-76
2022/09/27 07:03:31;;;;;;;5.23;3.30;;;9.70;99.90;;;;;;4911482;29;21038;-76
2022/09/27 07:06:01;;;;;;;9.37;4.43;;;9.80;99.90;;;;;;4910715;29;20495;-76
2022/09/27 07:08:28;;;;;;;4.57;2.33;;;9.80;99.90;;;;;;4911194;29;20460;-77
2022/09/27 07:10:56;;;;;;;5.97;3.70;;;9.80;99.90;;;;;;4911297;29;20483;-76
2022/09/27 07:13:25;;;;;;;3.20;2.37;;;9.90;99.90;;;;;;4910987;29;20466;-77
2022/09/27 07:15:52;;;;;;;2.83;2.53;;;9.90;99.90;;;;;;4910226;29;20836;-77
2022/09/27 07:18:19;;;;;;;4.70;2.60;;;9.80;99.90;;;;;;4910880;29;21325;-76
2022/09/27 07:20:46;;;;;;;4.23;2.33;;;9.80;99.90;;;;;;4911143;29;21003;-76
2022/09/27 07:23:15;;;;;;;4.13;2.40;;;9.80;99.90;;;;;;4910626;29;21098;-76
2022/09/27 07:25:42;;;;;;;8.13;1.87;;;9.80;99.90;;;;;;4910307;29;20456;-77
2022/09/27 07:28:14;;;;;;;2.60;2.00;;;9.70;99.90;;;;;;4911142;29;20463;-76
2022/09/27 07:30:41;;;;;;;4.67;1.87;;;9.80;99.90;;;;;;4910989;29;20487;-77
2022/09/27 07:33:08;;;;;;;3.20;2.13;;;9.70;99.90;;;;;;4910600;29;20600;-76
2022/09/27 07:35:39;;;;;;;2.03;1.83;;;9.70;99.90;;;;;;4910415;29;20467;-76
2022/09/27 07:38:08;;;;;;;2.60;1.80;;;9.70;99.90;;;;;;4910777;29;20494;-77
2022/09/27 07:40:37;;;;;;;1.90;1.50;;;9.80;99.90;;;;;;4910547;29;21150;-77
2022/09/27 07:43:04;;;;;;;1.63;1.47;;;9.70;99.90;;;;;;4910429;29;20494;-76
2022/09/27 07:45:32;;;;;;;4.40;1.67;;;9.70;99.90;;;;;;4909483;29;20485;-76
2022/09/27 07:47:58;;;;;;;2.70;1.20;;;9.70;99.90;;;;;;4910613;29;20469;-77
2022/09/27 07:50:27;;;;;;;2.03;1.33;;;9.70;99.90;;;;;;4910538;29;20463;-76
2022/09/27 07:52:55;;;;;;;1.80;1.70;;;9.70;99.90;;;;;;4910532;29;20563;-76
2022/09/27 07:55:23;;;;;;;1.87;1.43;;;9.70;99.90;;;;;;4909286;29;20506;-77
2022/09/27 07:57:52;;;;;;;1.70;1.60;;;9.70;99.90;;;;;;4910309;29;20566;-76
2022/09/27 08:00:19;;;;;;;2.80;1.50;;;9.70;99.90;;;;;;4908390;29;21010;-76
2022/09/27 08:02:49;;;;;;;1.43;1.33;;;9.70;99.90;;;;;;4910075;29;21015;-76
2022/09/27 08:05:16;;;;;;;2.00;1.50;;;9.70;99.90;;;;;;4909267;29;20466;-76
2022/09/27 08:07:43;;;;;;;2.67;1.33;;;9.70;99.90;;;;;;4909852;29;20999;-76
2022/09/27 08:10:10;;;;;;;1.60;1.50;;;9.70;99.90;;;;;;4909178;29;21004;-76
2022/09/27 08:12:37;;;;;;;2.50;1.80;;;9.70;99.90;;;;;;4909674;29;20531;-77
2022/09/27 08:15:06;;;;;;;3.10;1.50;;;9.70;99.90;;;;;;4909444;29;20467;-76
2022/09/27 08:17:33;;;;;;;2.13;1.93;;;9.70;99.90;;;;;;4909865;29;20841;-76
2022/09/27 08:20:04;;;;;;;5.30;2.10;;;9.70;99.90;;;;;;4909935;29;20463;-76
2022/09/27 08:22:31;;;;;;;5.50;2.07;;;9.70;99.90;;;;;;4909693;29;20594;-77
2022/09/27 08:24:58;;;;;;;3.30;1.70;;;9.80;99.90;;;;;;4909099;29;20469;-76
2022/09/27 08:27:25;;;;;;;5.10;1.90;;;9.70;99.90;;;;;;4909790;29;20523;-77
2022/09/27 08:29:52;;;;;;;2.97;2.03;;;9.80;99.90;;;;;;4909629;29;20550;-76
2022/09/27 08:32:20;;;;;;;4.30;1.90;;;9.80;99.90;;;;;;4909605;29;20479;-76
2022/09/27 08:34:47;;;;;;;3.07;2.30;;;9.90;99.90;;;;;;4908333;29;20485;-77
2022/09/27 08:37:14;;;;;;;8.50;2.20;;;9.90;99.90;;;;;;4913260;29;20538;-79
2022/09/27 08:39:41;;;;;;;2.87;2.20;;;9.90;99.90;;;;;;4928315;29;21045;-76
2022/09/27 08:42:18;;;;;;;4.80;2.43;;;10.00;99.90;;;;;;4928382;29;21044;-77
2022/09/27 08:44:55;;;;;;;4.77;2.40;;;10.00;99.90;;;;;;4927331;29;20447;-76
2022/09/27 08:47:28;;;;;;;4.70;2.10;;;10.10;99.90;;;;;;4928389;29;20468;-76
2022/09/27 08:49:58;;;;;;;4.23;2.20;;;10.20;99.90;;;;;;4928937;29;20457;-77
2022/09/27 08:52:29;;;;;;;2.83;2.17;;;10.20;99.90;;;;;;4927949;29;20489;-76
2022/09/27 08:55:01;;;;;;;2.70;2.20;;;10.20;99.90;;;;;;4908983;29;20467;-77
2022/09/27 08:57:28;;;;;;;2.27;2.10;;;10.20;99.90;;;;;;4909181;29;21019;-77
2022/09/27 09:00:01;;;;;;;2.20;2.00;;;10.30;99.90;;;;;;4909532;29;20542;-77
2022/09/27 09:02:29;;;;;;;3.03;2.07;;;10.30;99.90;;;;;;4908926;29;20579;-77
2022/09/27 09:05:03;;;;;;;2.50;2.00;;;10.30;99.90;;;;;;4908624;29;20473;-77
2022/09/27 09:07:50;;;;;;;9.27;2.23;;;10.30;99.90;;;;;;4912816;29;20473;-77
2022/09/27 09:13:25;;;;;;;4.40;2.17;;;10.30;99.90;;;;;;4912961;29;20448;-77
2022/09/27 09:16:02;;;;;;;2.00;1.67;;;10.30;99.90;;;;;;4912247;29;20463;-77
2022/09/27 09:18:52;;;;;;;4.10;1.90;;;10.30;99.90;;;;;;4912986;29;20469;-76
2022/09/27 09:21:27;;;;;;;1.60;1.50;;;10.30;99.90;;;;;;4912403;29;20562;-76
2022/09/27 09:24:23;;;;;;;3.70;1.93;;;10.30;99.90;;;;;;4912753;29;20502;-76
2022/09/27 09:26:58;;;;;;;3.13;1.70;;;10.30;99.90;;;;;;4913236;29;20443;-76
2022/09/27 09:29:45;;;;;;;3.83;1.87;;;10.40;99.90;;;;;;4912855;29;20721;-77
2022/09/27 09:32:25;;;;;;;4.70;2.20;;;10.40;99.90;;;;;;4913247;29;20491;-77
2022/09/27 09:34:58;;;;;;;3.67;2.43;;;10.40;99.90;;;;;;4912231;29;20550;-77
2022/09/27 09:37:36;;;;;;;2.33;1.83;;;10.50;99.90;;;;;;4912913;29;20809;-77
2022/09/27 09:40:07;;;;;;;4.40;1.90;;;10.60;99.90;;;;;;4912584;29;20947;-78
2022/09/27 09:42:40;;;;;;;2.43;2.23;;;10.60;99.90;;;;;;4913139;29;20510;-78
2022/09/27 09:45:16;;;;;;;2.10;1.90;;;10.60;99.90;;;;;;4912447;29;21356;-78
2022/09/27 09:47:46;;;;;;;5.07;2.30;;;10.60;99.90;;;;;;4912854;29;20791;-77
2022/09/27 09:50:18;;;;;;;7.43;2.67;;;10.60;99.90;;;;;;4913189;29;20582;-78
2022/09/27 09:52:48;;;;;;;3.10;2.30;;;10.50;99.90;;;;;;4912995;29;20440;-78
2022/09/27 09:55:19;;;;;;;2.77;2.43;;;10.60;99.90;;;;;;4911880;29;20571;-78
2022/09/27 09:57:56;;;;;;;7.93;2.63;;;10.60;99.90;;;;;;4912651;29;20463;-78
2022/09/27 10:00:23;;;;;;;3.53;2.73;;;10.60;99.90;;;;;;4912602;29;20558;-78
2022/09/27 10:02:53;;;;;;;5.00;2.80;;;10.60;99.90;;;;;;4910837;29;21017;-77
2022/09/27 10:05:23;;;;;;;3.93;2.27;;;10.70;99.90;;;;;;4912041;29;20550;-77
2022/09/27 10:07:53;;;;;;;9.37;3.50;;;10.80;99.90;;;;;;4912868;29;20454;-78
2022/09/27 10:10:21;;;;;;;6.50;2.80;;;10.90;99.90;;;;;;4912477;29;20828;-78
2022/09/27 10:12:49;;;;;;;4.53;2.20;;;11.10;99.90;;;;;;4912496;29;20459;-77
2022/09/27 10:15:18;;;;;;;2.97;2.07;;;11.20;99.90;;;;;;4911762;29;20463;-78
2022/09/27 10:17:50;;;;;;;2.20;1.73;;;11.30;99.90;;;;;;4911923;29;20470;-78
2022/09/27 10:20:28;;;;;;;1.70;1.57;;;11.40;99.90;;;;;;4911887;29;20467;-78
2022/09/27 10:23:00;;;;;;;2.20;1.77;;;11.40;99.90;;;;;;4912111;29;20521;-78
2022/09/27 10:25:46;;;;;;;4.30;2.27;;;11.50;99.90;;;;;;4911678;29;20482;-78
2022/09/27 10:28:31;;;;;;;4.20;2.27;;;11.50;99.90;;;;;;4910409;29;20539;-78
2022/09/27 10:31:01;;;;;;;3.13;2.00;;;11.50;99.90;;;;;;4911087;29;20549;-78
2022/09/27 10:33:30;;;;;;;4.20;2.60;;;11.50;99.90;;;;;;4910761;29;20462;-76
2022/09/27 10:35:59;;;;;;;5.33;2.40;;;11.50;99.90;;;;;;4910482;29;20477;-77
2022/09/27 10:38:31;;;;;;;4.87;2.20;;;11.50;99.90;;;;;;4910879;29;20538;-77
2022/09/27 10:41:16;;;;;;;3.37;2.27;;;11.50;99.90;;;;;;4910827;29;20490;-78
2022/09/27 10:43:43;;;;;;;8.03;2.50;;;11.60;99.90;;;;;;4911250;29;20494;-77
2022/09/27 10:46:16;;;;;;;6.27;2.87;;;11.60;99.90;;;;;;4910410;29;20471;-77
2022/09/27 10:48:43;;;;;;;4.63;2.30;;;11.70;99.90;;;;;;4910867;29;20538;-77
2022/09/27 10:51:25;;;;;;;3.40;1.77;;;11.80;99.90;;;;;;4910630;29;20493;-78
2022/09/27 10:53:57;;;;;;;4.70;2.00;;;11.90;99.90;;;;;;4910511;29;20527;-78
2022/09/27 10:56:28;;;;;;;7.10;2.00;;;11.90;99.90;;;;;;4910742;29;20456;-77
2022/09/27 10:58:56;;;;;;;4.03;1.90;;;11.90;99.90;;;;;;4910736;29;20443;-77
2022/09/27 11:01:24;;;;;;;3.90;2.07;;;11.90;99.90;;;;;;4910101;29;20530;-77
2022/09/27 11:03:55;;;;;;;2.67;1.90;;;11.90;99.90;;;;;;4910233;29;20587;-76
2022/09/27 11:06:36;;;;;;;3.27;1.70;;;11.90;99.90;;;;;;4910107;29;20467;-79
2022/09/27 11:09:17;;;;;;;1.83;1.53;;;11.90;99.90;;;;;;4910556;29;20478;-77
2022/09/27 11:11:45;;;;;;;9.13;1.90;;;11.80;99.90;;;;;;4910442;29;20542;-77
2022/09/27 11:14:23;;;;;;;4.93;1.77;;;11.70;99.90;;;;;;4910252;29;20475;-78
2022/09/27 11:17:09;;;;;;;5.40;2.23;;;11.70;99.90;;;;;;4910056;29;20613;-77
2022/09/27 11:19:52;;;;;;;2.97;2.00;;;11.60;99.90;;;;;;4909883;29;20579;-78
2022/09/27 11:22:36;;;;;;;3.40;2.00;;;11.60;99.90;;;;;;4910134;29;21059;-76
2022/09/27 11:25:13;;;;;;;3.27;2.00;;;11.40;99.90;;;;;;4909379;29;20886;-77
2022/09/27 11:27:55;;;;;;;3.17;2.43;;;11.40;99.90;;;;;;4910297;29;20462;-78
2022/09/27 11:30:23;;;;;;;7.23;2.67;;;11.30;99.90;;;;;;4909408;29;20542;-78
2022/09/27 11:33:11;;;;;;;7.87;3.73;;;11.30;99.90;;;;;;4909221;29;20468;-77
2022/09/27 11:35:51;;;;;;;7.70;3.10;;;11.30;99.90;;;;;;4910510;29;20463;-77
2022/09/27 11:38:24;;;;;;;3.57;2.90;;;11.30;99.90;;;;;;4910474;29;20479;-78
2022/09/27 11:41:21;;;;;;;4.93;3.03;;;11.30;99.90;;;;;;4911377;29;20988;-77
2022/09/27 11:44:20;;;;;;;11.33;3.37;;;11.20;99.90;;;;;;4910706;29;20502;-77
2022/09/27 11:46:52;;;;;;;8.90;3.27;;;11.00;99.90;;;;;;4910924;29;21044;-77
2022/09/27 11:49:40;;;;;;;5.40;3.53;;;10.70;99.90;;;;;;4910870;29;20460;-77
2022/09/27 11:52:22;;;;;;;10.53;4.40;;;10.60;99.90;;;;;;4910841;29;20483;-77
2022/09/27 11:55:09;;;;;;;4.30;3.57;;;10.50;99.90;;;;;;4909905;29;20531;-78
2022/09/27 11:57:42;;;;;;;4.20;3.10;;;10.50;99.90;;;;;;4910751;29;20435;-78
2022/09/27 12:00:17;;;;;;;4.00;3.20;;;10.50;99.90;;;;;;4911169;29;20440;-77
2022/09/27 12:03:16;;;;;;;6.70;4.30;;;10.50;99.90;;;;;;4911551;29;20507;-77
2022/09/27 12:05:59;;;;;;;5.53;3.90;;;10.40;99.90;;;;;;4910223;29;20463;-77
2022/09/27 12:08:35;;;;;;;4.27;3.50;;;10.20;99.90;;;;;;4910559;29;20956;-77
2022/09/27 12:11:12;;;;;;;3.57;2.07;;;10.10;99.90;;;;;;4910495;29;20490;-77
2022/09/27 12:13:43;;;;;;;4.53;2.77;;;9.80;99.90;;;;;;4910386;29;20939;-76
2022/09/27 12:16:12;;;;;;;3.60;1.70;;;9.70;99.90;;;;;;4909748;29;20462;-77
2022/09/27 12:18:40;;;;;;;2.20;1.40;;;9.60;99.90;;;;;;4910048;29;20956;-76
2022/09/27 12:21:10;;;;;;;1.70;1.60;;;9.50;99.90;;;;;;4910482;29;20491;-76
2022/09/27 12:23:41;;;;;;;2.30;1.63;;;9.40;99.90;;;;;;4910490;29;20928;-76
2022/09/27 12:26:14;;;;;;;2.60;2.00;;;9.40;99.90;;;;;;4909751;29;20538;-77
2022/09/27 12:28:49;;;;;;;3.63;2.07;;;9.30;99.90;;;;;;4910261;29;20473;-77
2022/09/27 12:31:22;;;;;;;1.80;1.57;;;9.20;99.90;;;;;;4910207;29;20514;-77
2022/09/27 12:33:57;;;;;;;1.97;1.80;;;9.10;99.90;;;;;;4910397;29;20452;-76
2022/09/27 12:36:31;;;;;;;1.53;1.30;;;9.10;99.90;;;;;;4910597;29;20468;-77
2022/09/27 12:39:04;;;;;;;2.93;1.33;;;9.10;99.90;;;;;;4910099;29;20463;-77
2022/09/27 12:41:38;;;;;;;2.93;1.40;;;9.10;99.90;;;;;;4909619;29;20493;-77
2022/09/27 12:44:05;;;;;;;1.87;1.50;;;9.10;99.90;;;;;;4909577;29;20491;-77
2022/09/27 12:46:41;;;;;;;2.43;1.60;;;9.10;99.90;;;;;;4910293;29;20474;-77
2022/09/27 12:49:14;;;;;;;5.67;1.43;;;9.10;99.90;;;;;;4910278;29;20462;-77
2022/09/27 12:51:46;;;;;;;6.53;2.50;;;9.20;99.90;;;;;;4909250;29;20999;-77
2022/09/27 12:54:36;;;;;;;2.17;1.60;;;9.10;99.90;;;;;;4908855;29;20459;-77
2022/09/27 12:57:17;;;;;;;1.73;1.63;;;9.10;99.90;;;;;;4909622;29;20467;-77
2022/09/27 13:00:00;;;;;;;10.33;1.87;;;9.10;99.90;;;;;;4909828;29;20467;-77
2022/09/27 13:02:53;;;;;;;3.73;1.83;;;9.00;99.90;;;;;;4909600;29;21134;-77
2022/09/27 13:05:52;;;;;;;1.87;1.20;;;9.00;99.90;;;;;;4909426;29;20854;-78
2022/09/27 13:08:34;;;;;;;2.63;1.27;;;9.10;99.90;;;;;;4909850;29;20457;-78
2022/09/27 13:11:13;;;;;;;1.70;1.60;;;9.10;99.90;;;;;;4909711;29;20987;-78
2022/09/27 13:13:41;;;;;;;5.10;1.73;;;9.20;99.90;;;;;;4909526;29;20469;-78
2022/09/27 13:16:09;;;;;;;7.40;2.70;;;9.10;99.90;;;;;;4909370;29;20467;-78
2022/09/27 13:18:54;;;;;;;4.30;1.97;;;9.10;99.90;;;;;;4909691;29;20459;-77
2022/09/27 13:21:58;;;;;;;1.67;1.57;;;9.20;99.90;;;;;;4909057;29;20499;-79
2022/09/27 13:24:47;;;;;;;3.10;2.10;;;9.20;99.90;;;;;;4909009;29;20832;-77
2022/09/27 13:27:39;;;;;;;1.90;1.80;;;9.10;99.90;;;;;;4905519;29;20467;-77
2022/09/27 13:30:48;;;;;;;1.70;1.40;;;9.10;99.90;;;;;;4896312;29;20911;-78
2022/09/27 13:33:47;;;;;;;2.20;1.53;;;9.00;99.90;;;;;;4910106;29;20936;-78
2022/09/27 13:36:29;;;;;;;1.73;1.40;;;9.00;99.90;;;;;;4907417;29;20487;-77
2022/09/27 13:39:18;;;;;;;2.90;2.00;;;9.00;99.90;;;;;;4909056;29;20935;-78
2022/09/27 13:42:13;;;;;;;2.50;1.80;;;8.90;99.90;;;;;;4908950;29;20483;-77
2022/09/27 13:44:50;;;;;;;4.10;1.93;;;8.90;99.90;;;;;;4908642;29;21519;-78
2022/09/27 13:47:31;;;;;;;2.60;1.97;;;8.90;99.90;;;;;;4908826;29;20485;-76
2022/09/27 13:50:13;;;;;;;2.33;1.90;;;8.90;99.90;;;;;;4908947;29;20503;-77
2022/09/27 13:52:43;;;;;;;3.23;2.30;;;8.90;99.90;;;;;;4909039;29;20952;-78
2022/09/27 13:55:40;;;;;;;2.40;2.20;;;8.90;99.90;;;;;;4909887;29;20446;-77
2022/09/27 13:58:16;;;;;;;4.00;2.20;;;8.90;99.90;;;;;;4911113;29;20463;-79
2022/09/27 14:00:45;;;;;;;2.50;2.00;;;9.00;99.90;;;;;;4912343;29;20501;-77
2022/09/27 14:03:53;;;;;;;3.50;2.57;;;9.00;99.90;;;;;;4910948;29;20987;-77
2022/09/27 14:06:28;;;;;;;3.83;3.50;;;9.10;99.90;;;;;;4909738;29;20479;-78
2022/09/27 14:08:58;;;;;;;3.50;3.13;;;9.20;99.90;;;;;;4910030;29;20478;-78
2022/09/27 14:11:29;;;;;;;3.30;2.67;;;9.30;99.90;;;;;;4910130;29;20510;-78
2022/09/27 14:13:58;;;;;;;3.10;2.50;;;9.30;99.90;;;;;;4911801;29;20455;-77
2022/09/27 14:16:28;;;;;;;1.93;1.83;;;9.30;99.90;;;;;;4911641;29;20905;-78
2022/09/27 14:19:01;;;;;;;2.23;1.93;;;9.40;99.90;;;;;;4911907;29;20465;-77
2022/09/27 14:21:32;;;;;;;2.70;2.23;;;9.40;99.90;;;;;;4911201;29;20479;-78
2022/09/27 14:24:19;;;;;;;4.10;2.27;;;9.40;99.90;;;;;;4911150;29;20946;-78
2022/09/27 14:26:46;;;;;;;3.87;2.77;;;9.40;99.90;;;;;;4912064;29;20471;-77
2022/09/27 14:29:19;;;;;;;2.60;2.40;;;9.40;99.90;;;;;;4911991;29;20463;-77
2022/09/27 14:31:48;;;;;;;9.40;2.43;;;9.40;99.90;;;;;;4911036;29;21075;-78
2022/09/27 14:34:15;;;;;;;2.57;2.10;;;9.40;99.90;;;;;;4911121;29;20904;-78
2022/09/27 14:39:31;;;;;;;2.33;2.13;;;9.50;99.90;;;;;;4911471;29;20619;-78
2022/09/27 14:41:59;;;;;;;3.67;2.20;;;9.50;99.90;;;;;;4912002;29;20844;-78
2022/09/27 14:44:26;;;;;;;7.80;3.00;;;9.60;99.90;;;;;;4910865;29;20502;-77
2022/09/27 14:47:09;;;;;;;2.93;2.23;;;9.60;99.90;;;;;;4911077;29;20469;-77
2022/09/27 14:49:36;;;;;;;2.03;1.83;;;9.50;99.90;;;;;;4911249;29;20459;-77
2022/09/27 14:52:16;;;;;;;2.90;1.77;;;9.60;99.90;;;;;;4910841;29;20562;-77
2022/09/27 14:54:45;;;;;;;2.27;1.53;;;9.50;99.90;;;;;;4910129;29;20459;-79
2022/09/27 14:57:15;;;;;;;2.77;1.80;;;9.50;99.90;;;;;;4911013;29;20471;-77
2022/09/27 14:59:45;;;;;;;4.40;2.50;;;9.60;99.90;;;;;;4910975;29;20849;-77
2022/09/27 15:02:18;;;;;;;3.30;2.90;;;9.60;99.90;;;;;;4910713;29;20509;-78
2022/09/27 15:04:47;;;;;;;3.87;2.93;;;9.70;99.90;;;;;;4909480;29;20915;-78
2022/09/27 15:07:22;;;;;;;3.23;2.93;;;9.70;99.90;;;;;;4910256;29;20469;-77
2022/09/27 15:09:50;;;;;;;2.70;2.10;;;9.80;99.90;;;;;;4911023;29;20447;-78
2022/09/27 15:12:24;;;;;;;5.67;3.27;;;9.90;99.90;;;;;;4910430;29;21054;-78
2022/09/27 15:14:53;;;;;;;4.00;2.97;;;10.00;99.90;;;;;;4910504;29;20462;-78
2022/09/27 15:17:22;;;;;;;3.07;2.40;;;10.00;99.90;;;;;;4910945;29;20471;-78
2022/09/27 15:20:00;;;;;;;3.00;2.67;;;10.00;99.90;;;;;;4910558;29;20473;-78
2022/09/27 15:22:43;;;;;;;5.50;2.67;;;10.00;99.90;;;;;;4910565;29;21076;-78
2022/09/27 15:25:21;;;;;;;3.30;2.30;;;10.10;99.90;;;;;;4910329;29;20539;-78
2022/09/27 15:27:50;;;;;;;3.73;2.90;;;10.20;99.90;;;;;;4910616;29;20443;-78
2022/09/27 15:30:20;;;;;;;3.60;2.57;;;10.20;99.90;;;;;;4910401;29;20482;-78
2022/09/27 15:32:52;;;;;;;2.47;2.27;;;10.20;99.90;;;;;;4910800;29;20866;-78
2022/09/27 15:35:25;;;;;;;2.97;2.40;;;10.20;99.90;;;;;;4909988;29;20939;-78
2022/09/27 15:38:11;;;;;;;6.73;2.60;;;10.20;99.90;;;;;;4910784;29;20459;-78
2022/09/27 15:41:09;;;;;;;3.63;2.37;;;10.20;99.90;;;;;;4910497;29;20487;-78
2022/09/27 15:43:39;;;;;;;2.33;2.13;;;10.10;99.90;;;;;;4851838;29;20465;-77
2022/09/27 15:46:29;;;;;;;3.20;2.80;;;10.10;99.90;;;;;;4897850;29;20506;-77
2022/09/27 15:49:22;;;;;;;5.60;2.70;;;10.20;99.90;;;;;;4909973;29;20991;-77
2022/09/27 15:51:51;;;;;;;3.40;3.03;;;10.30;99.90;;;;;;4911912;29;20598;-79
2022/09/27 15:54:20;;;;;;;4.90;2.93;;;10.40;99.90;;;;;;4910853;29;20471;-76
2022/09/27 15:56:49;;;;;;;5.63;2.40;;;10.40;99.90;;;;;;4911348;29;20459;-77
2022/09/27 15:59:21;;;;;;;3.33;2.90;;;10.40;99.90;;;;;;4910225;29;20502;-79
2022/09/27 16:01:50;;;;;;;3.80;2.70;;;10.40;99.90;;;;;;4910493;29;20671;-77
2022/09/27 16:04:17;;;;;;;3.90;2.30;;;10.30;99.90;;;;;;4910400;29;20546;-78
2022/09/27 16:06:44;;;;;;;7.80;4.23;;;10.30;99.90;;;;;;4909668;29;20503;-78
2022/09/27 16:09:17;;;;;;;4.03;2.87;;;10.30;99.90;;;;;;4909851;29;20463;-78
2022/09/27 16:11:46;;;;;;;4.57;3.20;;;10.30;99.90;;;;;;4910141;29;20886;-79
2022/09/27 16:14:17;;;;;;;2.93;2.63;;;10.40;99.90;;;;;;4909784;29;20547;-78
2022/09/27 16:16:45;;;;;;;5.20;3.40;;;10.40;99.90;;;;;;4910225;29;20546;-78
2022/09/27 16:19:12;;;;;;;7.90;3.73;;;10.40;99.90;;;;;;4910311;29;20467;-78
2022/09/27 16:21:41;;;;;;;5.80;3.67;;;10.30;99.90;;;;;;4910027;29;20494;-78
2022/09/27 16:24:08;;;;;;;6.30;4.20;;;10.30;99.90;;;;;;4909437;29;20470;-78
2022/09/27 16:26:35;;;;;;;4.43;3.77;;;10.30;99.90;;;;;;4910027;29;20502;-78
2022/09/27 16:29:04;;;;;;;5.77;3.40;;;10.40;99.90;;;;;;4910354;29;20459;-79
2022/09/27 16:31:30;;;;;;;4.80;3.50;;;10.30;99.90;;;;;;4910287;29;20478;-78
2022/09/27 16:33:59;;;;;;;5.70;3.60;;;10.30;99.90;;;;;;4909917;29;20463;-78
2022/09/27 16:36:26;;;;;;;6.40;3.93;;;10.30;99.90;;;;;;4909585;29;20493;-77
2022/09/27 16:38:53;;;;;;;7.37;3.33;;;10.30;99.90;;;;;;4909415;29;21104;-78
2022/09/27 16:41:21;;;;;;;6.17;4.40;;;10.20;99.90;;;;;;4910164;29;20487;-77
2022/09/27 16:43:49;;;;;;;9.07;4.37;;;10.20;99.90;;;;;;4910143;29;20471;-78
2022/09/27 16:46:18;;;;;;;6.70;3.57;;;10.20;99.90;;;;;;4909667;29;20487;-78
2022/09/27 16:48:46;;;;;;;4.83;3.30;;;10.20;99.90;;;;;;4909995;29;20466;-77
2022/09/27 16:53:59;;;;;;;4.33;3.10;;;10.20;99.90;;;;;;4909246;29;20431;-78
2022/09/27 16:56:26;;;;;;;4.90;3.20;;;10.20;99.90;;;;;;4909992;29;20508;-78
2022/09/27 16:58:53;;;;;;;5.20;3.83;;;10.20;99.90;;;;;;4909545;29;20562;-78
2022/09/27 17:01:21;;;;;;;4.20;3.30;;;10.20;99.90;;;;;;4909103;29;20533;-78
2022/09/27 17:03:49;;;;;;;5.17;3.20;;;10.20;99.90;;;;;;4909820;29;20463;-78
2022/09/27 17:06:17;;;;;;;4.30;3.33;;;10.10;99.90;;;;;;4909189;29;20494;-78
2022/09/27 17:08:44;;;;;;;2.90;2.50;;;10.10;99.90;;;;;;4909394;29;21319;-78
2022/09/27 17:11:13;;;;;;;2.57;2.20;;;10.10;99.90;;;;;;4909660;29;20491;-78
2022/09/27 17:13:40;;;;;;;6.30;2.77;;;10.00;99.90;;;;;;4909438;29;21404;-78
2022/09/27 17:16:07;;;;;;;5.83;2.23;;;10.10;99.90;;;;;;4908763;29;20575;-77
2022/09/27 17:18:35;;;;;;;4.10;2.27;;;10.00;99.90;;;;;;4909387;29;20960;-76
2022/09/27 17:21:03;;;;;;;5.70;2.20;;;10.00;99.90;;;;;;4909831;29;20490;-77
2022/09/27 17:23:30;;;;;;;2.20;1.97;;;9.90;99.90;;;;;;4909901;29;20459;-76
2022/09/27 17:26:06;;;;;;;2.90;1.97;;;10.00;99.90;;;;;;4909406;29;20497;-76
2022/09/27 17:28:34;;;;;;;3.33;2.40;;;9.90;99.90;;;;;;4913920;29;20450;-76
2022/09/27 17:31:07;;;;;;;3.67;2.20;;;9.90;99.90;;;;;;4913322;29;20942;-77
2022/09/27 17:33:42;;;;;;;3.60;2.50;;;9.90;99.90;;;;;;4912591;29;20842;-77